sensor_id;sensor_type;location;lat;lon;timestamp;P1;durP1;ratioP1;P2;durP2;ratioP2
7661;SDS011;30314;48.184;11.510;2023-04-15T00:00:57;7.30;;;3.30;;
7661;SDS011;30314;48.184;11.510;2023-04-15T00:03:24;5.07;;;2.70;;
7661;SDS011;30314;48.184;11.510;2023-04-15T00:05:51;7.07;;;2.90;;
7661;SDS011;30314;48.184;11.510;2023-04-15T00:08:18;4.80;;;2.50;;
7661;SDS011;30314;48.184;11.510;2023-04-15T00:10:45;4.50;;;2.73;;
7661;SDS011;30314;48.184;11.510;2023-04-15T00:13:12;3.57;;;3.03;;
7661;SDS011;30314;48.184;11.510;2023-04-15T00:15:38;7.63;;;2.83;;
7661;SDS011;30314;48.184;11.510;2023-04-15T00:18:05;7.37;;;3.00;;
7661;SDS011;30314;48.184;11.510;2023-04-15T00:20:33;8.23;;;3.07;;
7661;SDS011;30314;48.184;11.510;2023-04-15T00:23:01;5.50;;;3.07;;
7661;SDS011;30314;48.184;11.510;2023-04-15T00:25:29;8.90;;;2.63;;
7661;SDS011;30314;48.184;11.510;2023-04-15T00:27:55;6.50;;;2.70;;
7661;SDS011;30314;48.184;11.510;2023-04-15T00:30:22;10.50;;;3.13;;
7661;SDS011;30314;48.184;11.510;2023-04-15T00:32:49;7.27;;;3.43;;
7661;SDS011;30314;48.184;11.510;2023-04-15T00:35:19;9.00;;;3.13;;
7661;SDS011;30314;48.184;11.510;2023-04-15T00:37:48;7.03;;;3.73;;
7661;SDS011;30314;48.184;11.510;2023-04-15T00:40:16;7.10;;;2.93;;
7661;SDS011;30314;48.184;11.510;2023-04-15T00:42:46;5.67;;;2.60;;
7661;SDS011;30314;48.184;11.510;2023-04-15T00:45:13;6.27;;;3.10;;
7661;SDS011;30314;48.184;11.510;2023-04-15T00:47:43;7.63;;;3.60;;
7661;SDS011;30314;48.184;11.510;2023-04-15T00:50:10;6.63;;;3.73;;
7661;SDS011;30314;48.184;11.510;2023-04-15T00:52:38;14.63;;;5.40;;
7661;SDS011;30314;48.184;11.510;2023-04-15T00:55:06;12.37;;;4.60;;
7661;SDS011;30314;48.184;11.510;2023-04-15T00:57:33;7.00;;;3.40;;
7661;SDS011;30314;48.184;11.510;2023-04-15T01:00:00;6.77;;;3.40;;
7661;SDS011;30314;48.184;11.510;2023-04-15T01:02:27;4.53;;;3.10;;
7661;SDS011;30314;48.184;11.510;2023-04-15T01:04:55;6.97;;;3.50;;
7661;SDS011;30314;48.184;11.510;2023-04-15T01:07:21;10.73;;;3.80;;
7661;SDS011;30314;48.184;11.510;2023-04-15T01:09:48;7.20;;;3.50;;
7661;SDS011;30314;48.184;11.510;2023-04-15T01:12:15;11.70;;;4.33;;
7661;SDS011;30314;48.184;11.510;2023-04-15T01:14:42;7.40;;;4.00;;
7661;SDS011;30314;48.184;11.510;2023-04-15T01:17:09;5.10;;;3.67;;
7661;SDS011;30314;48.184;11.510;2023-04-15T01:19:35;7.20;;;4.10;;
7661;SDS011;30314;48.184;11.510;2023-04-15T01:22:02;7.63;;;3.63;;
7661;SDS011;30314;48.184;11.510;2023-04-15T01:24:29;9.00;;;3.93;;
7661;SDS011;30314;48.184;11.510;2023-04-15T01:26:57;7.30;;;3.80;;
7661;SDS011;30314;48.184;11.510;2023-04-15T01:29:23;7.20;;;4.30;;
7661;SDS011;30314;48.184;11.510;2023-04-15T01:31:50;5.93;;;3.50;;
7661;SDS011;30314;48.184;11.510;2023-04-15T01:34:18;8.53;;;4.20;;
7661;SDS011;30314;48.184;11.510;2023-04-15T01:36:45;5.83;;;3.73;;
7661;SDS011;30314;48.184;11.510;2023-04-15T01:39:12;9.10;;;3.50;;
7661;SDS011;30314;48.184;11.510;2023-04-15T01:41:39;6.00;;;3.60;;
7661;SDS011;30314;48.184;11.510;2023-04-15T01:44:07;5.67;;;3.60;;
7661;SDS011;30314;48.184;11.510;2023-04-15T01:46:34;6.20;;;3.60;;
7661;SDS011;30314;48.184;11.510;2023-04-15T01:49:00;8.00;;;3.97;;
7661;SDS011;30314;48.184;11.510;2023-04-15T01:51:27;5.23;;;3.30;;
7661;SDS011;30314;48.184;11.510;2023-04-15T01:53:54;8.90;;;3.80;;
7661;SDS011;30314;48.184;11.510;2023-04-15T01:56:23;7.97;;;4.27;;
7661;SDS011;30314;48.184;11.510;2023-04-15T01:58:50;9.63;;;4.20;;
7661;SDS011;30314;48.184;11.510;2023-04-15T02:01:17;7.20;;;3.83;;
7661;SDS011;30314;48.184;11.510;2023-04-15T02:03:47;9.40;;;3.63;;
7661;SDS011;30314;48.184;11.510;2023-04-15T02:06:14;7.37;;;4.30;;
7661;SDS011;30314;48.184;11.510;2023-04-15T02:08:41;5.90;;;4.37;;
7661;SDS011;30314;48.184;11.510;2023-04-15T02:11:07;6.20;;;3.63;;
7661;SDS011;30314;48.184;11.510;2023-04-15T02:13:34;8.07;;;4.67;;
7661;SDS011;30314;48.184;11.510;2023-04-15T02:16:01;7.60;;;4.33;;
7661;SDS011;30314;48.184;11.510;2023-04-15T02:18:28;8.03;;;4.93;;
7661;SDS011;30314;48.184;11.510;2023-04-15T02:20:55;7.33;;;4.40;;
7661;SDS011;30314;48.184;11.510;2023-04-15T02:23:23;8.80;;;4.27;;
7661;SDS011;30314;48.184;11.510;2023-04-15T02:25:50;7.37;;;4.40;;
7661;SDS011;30314;48.184;11.510;2023-04-15T02:28:19;9.17;;;4.07;;
7661;SDS011;30314;48.184;11.510;2023-04-15T02:30:50;9.27;;;4.10;;
7661;SDS011;30314;48.184;11.510;2023-04-15T02:33:18;6.73;;;3.90;;
7661;SDS011;30314;48.184;11.510;2023-04-15T02:35:45;9.00;;;5.37;;
7661;SDS011;30314;48.184;11.510;2023-04-15T02:38:12;6.20;;;3.53;;
7661;SDS011;30314;48.184;11.510;2023-04-15T02:40:39;11.63;;;4.10;;
7661;SDS011;30314;48.184;11.510;2023-04-15T02:43:06;8.60;;;4.30;;
7661;SDS011;30314;48.184;11.510;2023-04-15T02:45:33;5.67;;;3.77;;
7661;SDS011;30314;48.184;11.510;2023-04-15T02:48:02;7.80;;;3.70;;
7661;SDS011;30314;48.184;11.510;2023-04-15T02:50:31;7.00;;;4.50;;
7661;SDS011;30314;48.184;11.510;2023-04-15T02:52:58;7.60;;;4.00;;
7661;SDS011;30314;48.184;11.510;2023-04-15T02:55:27;7.43;;;4.40;;
7661;SDS011;30314;48.184;11.510;2023-04-15T02:57:54;10.90;;;4.13;;
7661;SDS011;30314;48.184;11.510;2023-04-15T03:00:21;7.87;;;4.30;;
7661;SDS011;30314;48.184;11.510;2023-04-15T03:02:50;7.27;;;4.27;;
7661;SDS011;30314;48.184;11.510;2023-04-15T03:05:22;11.80;;;4.30;;
7661;SDS011;30314;48.184;11.510;2023-04-15T03:07:51;11.10;;;4.40;;
7661;SDS011;30314;48.184;11.510;2023-04-15T03:10:19;6.10;;;4.13;;
7661;SDS011;30314;48.184;11.510;2023-04-15T03:12:46;8.00;;;4.53;;
7661;SDS011;30314;48.184;11.510;2023-04-15T03:15:16;9.50;;;4.20;;
7661;SDS011;30314;48.184;11.510;2023-04-15T03:17:46;8.90;;;4.90;;
7661;SDS011;30314;48.184;11.510;2023-04-15T03:20:14;7.90;;;4.23;;
7661;SDS011;30314;48.184;11.510;2023-04-15T03:22:42;6.50;;;4.00;;
7661;SDS011;30314;48.184;11.510;2023-04-15T03:25:08;5.80;;;3.50;;
7661;SDS011;30314;48.184;11.510;2023-04-15T03:27:36;10.63;;;3.80;;
7661;SDS011;30314;48.184;11.510;2023-04-15T03:30:04;6.27;;;4.40;;
7661;SDS011;30314;48.184;11.510;2023-04-15T03:32:34;10.83;;;3.70;;
7661;SDS011;30314;48.184;11.510;2023-04-15T03:35:01;7.87;;;3.53;;
7661;SDS011;30314;48.184;11.510;2023-04-15T03:37:27;8.07;;;4.27;;
7661;SDS011;30314;48.184;11.510;2023-04-15T03:39:54;12.83;;;3.90;;
7661;SDS011;30314;48.184;11.510;2023-04-15T03:42:20;6.20;;;4.00;;
7661;SDS011;30314;48.184;11.510;2023-04-15T03:44:47;5.57;;;3.47;;
7661;SDS011;30314;48.184;11.510;2023-04-15T03:47:13;7.33;;;4.37;;
7661;SDS011;30314;48.184;11.510;2023-04-15T03:49:40;5.10;;;3.57;;
7661;SDS011;30314;48.184;11.510;2023-04-15T03:52:06;7.80;;;3.83;;
7661;SDS011;30314;48.184;11.510;2023-04-15T03:54:33;13.17;;;4.17;;
7661;SDS011;30314;48.184;11.510;2023-04-15T03:56:59;6.03;;;3.70;;
7661;SDS011;30314;48.184;11.510;2023-04-15T03:59:26;6.67;;;4.43;;
7661;SDS011;30314;48.184;11.510;2023-04-15T04:01:53;6.57;;;3.60;;
7661;SDS011;30314;48.184;11.510;2023-04-15T04:04:19;6.57;;;3.60;;
7661;SDS011;30314;48.184;11.510;2023-04-15T04:06:46;5.53;;;3.80;;
7661;SDS011;30314;48.184;11.510;2023-04-15T04:09:12;7.50;;;3.23;;
7661;SDS011;30314;48.184;11.510;2023-04-15T04:11:39;7.43;;;3.70;;
7661;SDS011;30314;48.184;11.510;2023-04-15T04:14:05;9.83;;;3.57;;
7661;SDS011;30314;48.184;11.510;2023-04-15T04:16:32;6.00;;;3.40;;
7661;SDS011;30314;48.184;11.510;2023-04-15T04:18:58;5.40;;;2.90;;
7661;SDS011;30314;48.184;11.510;2023-04-15T04:21:25;5.40;;;3.90;;
7661;SDS011;30314;48.184;11.510;2023-04-15T04:23:52;5.07;;;3.10;;
7661;SDS011;30314;48.184;11.510;2023-04-15T04:26:18;7.07;;;3.43;;
7661;SDS011;30314;48.184;11.510;2023-04-15T04:28:45;5.60;;;3.90;;
7661;SDS011;30314;48.184;11.510;2023-04-15T04:31:12;5.33;;;3.43;;
7661;SDS011;30314;48.184;11.510;2023-04-15T04:33:38;7.77;;;3.93;;
7661;SDS011;30314;48.184;11.510;2023-04-15T04:36:05;8.50;;;4.30;;
7661;SDS011;30314;48.184;11.510;2023-04-15T04:38:32;6.10;;;3.53;;
7661;SDS011;30314;48.184;11.510;2023-04-15T04:40:59;8.47;;;4.13;;
7661;SDS011;30314;48.184;11.510;2023-04-15T04:43:25;6.50;;;3.70;;
7661;SDS011;30314;48.184;11.510;2023-04-15T04:45:52;9.43;;;2.87;;
7661;SDS011;30314;48.184;11.510;2023-04-15T04:48:19;9.57;;;3.70;;
7661;SDS011;30314;48.184;11.510;2023-04-15T04:50:45;7.87;;;3.07;;
7661;SDS011;30314;48.184;11.510;2023-04-15T04:53:12;7.60;;;2.90;;
7661;SDS011;30314;48.184;11.510;2023-04-15T04:55:38;6.40;;;2.87;;
7661;SDS011;30314;48.184;11.510;2023-04-15T04:58:05;5.57;;;3.80;;
7661;SDS011;30314;48.184;11.510;2023-04-15T05:00:32;5.20;;;2.73;;
7661;SDS011;30314;48.184;11.510;2023-04-15T05:02:58;5.93;;;3.60;;
7661;SDS011;30314;48.184;11.510;2023-04-15T05:05:25;6.20;;;2.70;;
7661;SDS011;30314;48.184;11.510;2023-04-15T05:07:52;7.00;;;4.27;;
7661;SDS011;30314;48.184;11.510;2023-04-15T05:10:19;5.43;;;2.53;;
7661;SDS011;30314;48.184;11.510;2023-04-15T05:12:45;5.83;;;2.97;;
7661;SDS011;30314;48.184;11.510;2023-04-15T05:15:12;10.40;;;3.50;;
7661;SDS011;30314;48.184;11.510;2023-04-15T05:17:38;5.87;;;2.40;;
7661;SDS011;30314;48.184;11.510;2023-04-15T05:20:05;6.33;;;2.67;;
7661;SDS011;30314;48.184;11.510;2023-04-15T05:22:32;7.07;;;2.90;;
7661;SDS011;30314;48.184;11.510;2023-04-15T05:24:59;4.83;;;3.20;;
7661;SDS011;30314;48.184;11.510;2023-04-15T05:27:26;2.73;;;2.20;;
7661;SDS011;30314;48.184;11.510;2023-04-15T05:29:52;10.57;;;3.13;;
7661;SDS011;30314;48.184;11.510;2023-04-15T05:32:19;4.33;;;2.80;;
7661;SDS011;30314;48.184;11.510;2023-04-15T05:34:45;7.50;;;2.70;;
7661;SDS011;30314;48.184;11.510;2023-04-15T05:37:12;6.30;;;2.47;;
7661;SDS011;30314;48.184;11.510;2023-04-15T05:39:39;3.83;;;2.20;;
7661;SDS011;30314;48.184;11.510;2023-04-15T05:42:05;6.50;;;3.10;;
7661;SDS011;30314;48.184;11.510;2023-04-15T05:44:32;6.53;;;3.10;;
7661;SDS011;30314;48.184;11.510;2023-04-15T05:46:58;4.43;;;1.80;;
7661;SDS011;30314;48.184;11.510;2023-04-15T05:49:28;6.53;;;2.00;;
7661;SDS011;30314;48.184;11.510;2023-04-15T05:51:55;4.40;;;2.93;;
7661;SDS011;30314;48.184;11.510;2023-04-15T05:54:21;9.00;;;2.70;;
7661;SDS011;30314;48.184;11.510;2023-04-15T05:56:48;3.43;;;1.87;;
7661;SDS011;30314;48.184;11.510;2023-04-15T05:59:14;8.13;;;2.40;;
7661;SDS011;30314;48.184;11.510;2023-04-15T06:01:41;7.83;;;1.73;;
7661;SDS011;30314;48.184;11.510;2023-04-15T06:04:08;7.83;;;1.70;;
7661;SDS011;30314;48.184;11.510;2023-04-15T06:06:35;5.83;;;2.27;;
7661;SDS011;30314;48.184;11.510;2023-04-15T06:09:01;8.30;;;1.60;;
7661;SDS011;30314;48.184;11.510;2023-04-15T06:11:28;10.10;;;2.00;;
7661;SDS011;30314;48.184;11.510;2023-04-15T06:13:54;3.63;;;1.57;;
7661;SDS011;30314;48.184;11.510;2023-04-15T06:16:21;3.10;;;1.60;;
7661;SDS011;30314;48.184;11.510;2023-04-15T06:18:48;3.57;;;1.50;;
7661;SDS011;30314;48.184;11.510;2023-04-15T06:21:15;3.20;;;2.80;;
7661;SDS011;30314;48.184;11.510;2023-04-15T06:23:41;2.70;;;1.33;;
7661;SDS011;30314;48.184;11.510;2023-04-15T06:26:08;8.17;;;1.87;;
7661;SDS011;30314;48.184;11.510;2023-04-15T06:28:34;2.93;;;1.53;;
7661;SDS011;30314;48.184;11.510;2023-04-15T06:31:01;3.53;;;1.50;;
7661;SDS011;30314;48.184;11.510;2023-04-15T06:33:28;3.90;;;1.43;;
7661;SDS011;30314;48.184;11.510;2023-04-15T06:35:54;5.30;;;2.57;;
7661;SDS011;30314;48.184;11.510;2023-04-15T06:38:21;10.40;;;2.60;;
7661;SDS011;30314;48.184;11.510;2023-04-15T06:40:47;4.20;;;1.70;;
7661;SDS011;30314;48.184;11.510;2023-04-15T06:43:14;3.60;;;1.77;;
7661;SDS011;30314;48.184;11.510;2023-04-15T06:45:40;2.47;;;1.60;;
7661;SDS011;30314;48.184;11.510;2023-04-15T06:48:07;7.43;;;1.60;;
7661;SDS011;30314;48.184;11.510;2023-04-15T06:50:33;4.00;;;1.40;;
7661;SDS011;30314;48.184;11.510;2023-04-15T06:53:00;5.47;;;2.37;;
7661;SDS011;30314;48.184;11.510;2023-04-15T06:55:28;3.23;;;1.77;;
7661;SDS011;30314;48.184;11.510;2023-04-15T06:57:54;5.33;;;1.77;;
7661;SDS011;30314;48.184;11.510;2023-04-15T07:00:21;4.63;;;1.53;;
7661;SDS011;30314;48.184;11.510;2023-04-15T07:02:48;3.20;;;1.60;;
7661;SDS011;30314;48.184;11.510;2023-04-15T07:05:14;2.53;;;1.20;;
7661;SDS011;30314;48.184;11.510;2023-04-15T07:07:41;3.83;;;1.63;;
7661;SDS011;30314;48.184;11.510;2023-04-15T07:10:08;8.63;;;1.70;;
7661;SDS011;30314;48.184;11.510;2023-04-15T07:12:35;4.00;;;1.57;;
7661;SDS011;30314;48.184;11.510;2023-04-15T07:15:01;6.10;;;1.60;;
7661;SDS011;30314;48.184;11.510;2023-04-15T07:17:28;5.00;;;1.77;;
7661;SDS011;30314;48.184;11.510;2023-04-15T07:19:55;2.97;;;1.40;;
7661;SDS011;30314;48.184;11.510;2023-04-15T07:22:21;2.57;;;1.50;;
7661;SDS011;30314;48.184;11.510;2023-04-15T07:24:48;4.77;;;1.87;;
7661;SDS011;30314;48.184;11.510;2023-04-15T07:27:14;7.40;;;2.20;;
7661;SDS011;30314;48.184;11.510;2023-04-15T07:29:41;5.77;;;1.50;;
7661;SDS011;30314;48.184;11.510;2023-04-15T07:32:08;4.03;;;1.87;;
7661;SDS011;30314;48.184;11.510;2023-04-15T07:34:36;2.33;;;1.10;;
7661;SDS011;30314;48.184;11.510;2023-04-15T07:37:03;7.90;;;1.50;;
7661;SDS011;30314;48.184;11.510;2023-04-15T07:39:29;5.50;;;2.00;;
7661;SDS011;30314;48.184;11.510;2023-04-15T07:41:56;6.80;;;1.73;;
7661;SDS011;30314;48.184;11.510;2023-04-15T07:44:25;2.33;;;1.63;;
7661;SDS011;30314;48.184;11.510;2023-04-15T07:46:52;5.17;;;1.40;;
7661;SDS011;30314;48.184;11.510;2023-04-15T07:49:19;5.20;;;1.47;;
7661;SDS011;30314;48.184;11.510;2023-04-15T07:51:47;2.20;;;1.23;;
7661;SDS011;30314;48.184;11.510;2023-04-15T07:54:14;3.77;;;2.10;;
7661;SDS011;30314;48.184;11.510;2023-04-15T07:56:41;3.77;;;1.03;;
7661;SDS011;30314;48.184;11.510;2023-04-15T07:59:08;7.37;;;1.70;;
7661;SDS011;30314;48.184;11.510;2023-04-15T08:01:35;4.47;;;1.43;;
7661;SDS011;30314;48.184;11.510;2023-04-15T08:04:02;3.20;;;1.30;;
7661;SDS011;30314;48.184;11.510;2023-04-15T08:06:29;3.73;;;0.93;;
7661;SDS011;30314;48.184;11.510;2023-04-15T08:08:56;4.53;;;1.80;;
7661;SDS011;30314;48.184;11.510;2023-04-15T08:11:22;3.53;;;1.20;;
7661;SDS011;30314;48.184;11.510;2023-04-15T08:13:49;3.30;;;1.57;;
7661;SDS011;30314;48.184;11.510;2023-04-15T08:16:18;2.10;;;1.33;;
7661;SDS011;30314;48.184;11.510;2023-04-15T08:18:46;5.13;;;2.17;;
7661;SDS011;30314;48.184;11.510;2023-04-15T08:21:14;3.40;;;1.57;;
7661;SDS011;30314;48.184;11.510;2023-04-15T08:23:41;10.40;;;2.10;;
7661;SDS011;30314;48.184;11.510;2023-04-15T08:26:08;4.93;;;1.47;;
7661;SDS011;30314;48.184;11.510;2023-04-15T08:28:37;5.80;;;1.57;;
7661;SDS011;30314;48.184;11.510;2023-04-15T08:31:04;4.93;;;1.53;;
7661;SDS011;30314;48.184;11.510;2023-04-15T08:33:31;2.90;;;1.60;;
7661;SDS011;30314;48.184;11.510;2023-04-15T08:35:58;3.97;;;1.67;;
7661;SDS011;30314;48.184;11.510;2023-04-15T08:38:24;8.63;;;1.47;;
7661;SDS011;30314;48.184;11.510;2023-04-15T08:40:51;4.80;;;1.53;;
7661;SDS011;30314;48.184;11.510;2023-04-15T08:43:19;7.83;;;1.90;;
7661;SDS011;30314;48.184;11.510;2023-04-15T08:45:52;2.80;;;1.80;;
7661;SDS011;30314;48.184;11.510;2023-04-15T08:48:18;3.83;;;1.77;;
7661;SDS011;30314;48.184;11.510;2023-04-15T08:50:46;3.67;;;1.90;;
7661;SDS011;30314;48.184;11.510;2023-04-15T08:53:14;3.37;;;1.73;;
7661;SDS011;30314;48.184;11.510;2023-04-15T08:55:41;4.40;;;2.30;;
7661;SDS011;30314;48.184;11.510;2023-04-15T08:58:12;3.23;;;1.40;;
7661;SDS011;30314;48.184;11.510;2023-04-15T09:00:40;3.50;;;1.40;;
7661;SDS011;30314;48.184;11.510;2023-04-15T09:03:08;4.30;;;1.67;;
7661;SDS011;30314;48.184;11.510;2023-04-15T09:05:35;4.97;;;1.77;;
7661;SDS011;30314;48.184;11.510;2023-04-15T09:08:03;3.43;;;1.67;;
7661;SDS011;30314;48.184;11.510;2023-04-15T09:10:30;5.80;;;1.67;;
7661;SDS011;30314;48.184;11.510;2023-04-15T09:12:59;2.83;;;1.63;;
7661;SDS011;30314;48.184;11.510;2023-04-15T09:15:27;5.03;;;1.90;;
7661;SDS011;30314;48.184;11.510;2023-04-15T09:17:55;5.60;;;1.57;;
7661;SDS011;30314;48.184;11.510;2023-04-15T09:20:22;4.00;;;2.10;;
7661;SDS011;30314;48.184;11.510;2023-04-15T09:22:49;6.73;;;2.13;;
7661;SDS011;30314;48.184;11.510;2023-04-15T09:27:51;6.90;;;1.93;;
7661;SDS011;30314;48.184;11.510;2023-04-15T09:30:18;5.00;;;1.93;;
7661;SDS011;30314;48.184;11.510;2023-04-15T09:35:16;7.43;;;2.57;;
7661;SDS011;30314;48.184;11.510;2023-04-15T09:37:44;8.73;;;1.93;;
7661;SDS011;30314;48.184;11.510;2023-04-15T09:40:10;3.07;;;1.60;;
7661;SDS011;30314;48.184;11.510;2023-04-15T09:42:53;4.40;;;2.13;;
7661;SDS011;30314;48.184;11.510;2023-04-15T09:45:21;5.20;;;1.97;;
7661;SDS011;30314;48.184;11.510;2023-04-15T09:47:50;5.93;;;2.20;;
7661;SDS011;30314;48.184;11.510;2023-04-15T09:50:18;3.23;;;2.07;;
7661;SDS011;30314;48.184;11.510;2023-04-15T09:52:45;4.60;;;1.83;;
7661;SDS011;30314;48.184;11.510;2023-04-15T09:55:13;4.00;;;2.40;;
7661;SDS011;30314;48.184;11.510;2023-04-15T09:57:41;3.50;;;1.90;;
7661;SDS011;30314;48.184;11.510;2023-04-15T10:00:09;4.10;;;2.20;;
7661;SDS011;30314;48.184;11.510;2023-04-15T10:02:36;4.90;;;2.27;;
7661;SDS011;30314;48.184;11.510;2023-04-15T10:05:05;4.33;;;2.20;;
7661;SDS011;30314;48.184;11.510;2023-04-15T10:07:32;5.10;;;3.03;;
7661;SDS011;30314;48.184;11.510;2023-04-15T10:10:00;5.97;;;2.40;;
7661;SDS011;30314;48.184;11.510;2023-04-15T10:12:27;2.80;;;2.00;;
7661;SDS011;30314;48.184;11.510;2023-04-15T10:14:58;6.40;;;2.67;;
7661;SDS011;30314;48.184;11.510;2023-04-15T10:17:31;8.27;;;3.10;;
7661;SDS011;30314;48.184;11.510;2023-04-15T10:20:02;7.17;;;2.87;;
7661;SDS011;30314;48.184;11.510;2023-04-15T10:22:30;6.37;;;2.20;;
7661;SDS011;30314;48.184;11.510;2023-04-15T10:24:58;5.60;;;3.10;;
7661;SDS011;30314;48.184;11.510;2023-04-15T10:27:27;6.47;;;2.70;;
7661;SDS011;30314;48.184;11.510;2023-04-15T10:29:55;8.70;;;3.40;;
7661;SDS011;30314;48.184;11.510;2023-04-15T10:32:23;6.30;;;3.10;;
7661;SDS011;30314;48.184;11.510;2023-04-15T10:34:50;7.77;;;3.70;;
7661;SDS011;30314;48.184;11.510;2023-04-15T10:37:41;7.80;;;3.10;;
7661;SDS011;30314;48.184;11.510;2023-04-15T10:40:22;4.20;;;2.63;;
7661;SDS011;30314;48.184;11.510;2023-04-15T10:42:52;6.80;;;3.10;;
7661;SDS011;30314;48.184;11.510;2023-04-15T10:45:19;6.43;;;2.60;;
7661;SDS011;30314;48.184;11.510;2023-04-15T10:47:50;4.43;;;3.27;;
7661;SDS011;30314;48.184;11.510;2023-04-15T10:50:18;6.40;;;2.70;;
7661;SDS011;30314;48.184;11.510;2023-04-15T10:52:45;9.00;;;2.83;;
7661;SDS011;30314;48.184;11.510;2023-04-15T10:55:18;5.20;;;2.97;;
7661;SDS011;30314;48.184;11.510;2023-04-15T10:57:54;10.47;;;3.10;;
7661;SDS011;30314;48.184;11.510;2023-04-15T11:00:24;7.83;;;3.60;;
7661;SDS011;30314;48.184;11.510;2023-04-15T11:02:56;6.63;;;2.83;;
7661;SDS011;30314;48.184;11.510;2023-04-15T11:08:15;5.87;;;3.30;;
7661;SDS011;30314;48.184;11.510;2023-04-15T11:15:36;5.97;;;3.13;;
7661;SDS011;30314;48.184;11.510;2023-04-15T11:18:13;9.03;;;5.43;;
7661;SDS011;30314;48.184;11.510;2023-04-15T11:20:52;6.23;;;3.97;;
7661;SDS011;30314;48.184;11.510;2023-04-15T11:23:30;5.07;;;4.00;;
7661;SDS011;30314;48.184;11.510;2023-04-15T11:25:58;8.80;;;4.30;;
7661;SDS011;30314;48.184;11.510;2023-04-15T11:28:26;7.17;;;4.00;;
7661;SDS011;30314;48.184;11.510;2023-04-15T11:30:54;10.00;;;3.93;;
7661;SDS011;30314;48.184;11.510;2023-04-15T11:33:21;8.13;;;4.77;;
7661;SDS011;30314;48.184;11.510;2023-04-15T11:35:49;6.07;;;4.37;;
7661;SDS011;30314;48.184;11.510;2023-04-15T11:38:17;12.03;;;7.10;;
7661;SDS011;30314;48.184;11.510;2023-04-15T11:40:44;7.47;;;4.23;;
7661;SDS011;30314;48.184;11.510;2023-04-15T11:45:51;10.20;;;4.50;;
7661;SDS011;30314;48.184;11.510;2023-04-15T11:48:31;11.53;;;4.50;;
7661;SDS011;30314;48.184;11.510;2023-04-15T11:51:00;7.97;;;4.37;;
7661;SDS011;30314;48.184;11.510;2023-04-15T11:53:38;9.40;;;4.80;;
7661;SDS011;30314;48.184;11.510;2023-04-15T11:56:10;7.70;;;4.50;;
7661;SDS011;30314;48.184;11.510;2023-04-15T11:58:42;8.53;;;4.37;;
7661;SDS011;30314;48.184;11.510;2023-04-15T12:01:11;4.70;;;3.70;;
7661;SDS011;30314;48.184;11.510;2023-04-15T12:03:39;7.37;;;3.67;;
7661;SDS011;30314;48.184;11.510;2023-04-15T12:06:10;9.30;;;4.50;;
7661;SDS011;30314;48.184;11.510;2023-04-15T12:11:32;5.33;;;3.00;;
7661;SDS011;30314;48.184;11.510;2023-04-15T12:17:00;9.43;;;3.70;;
7661;SDS011;30314;48.184;11.510;2023-04-15T12:19:29;8.07;;;4.27;;
7661;SDS011;30314;48.184;11.510;2023-04-15T12:21:58;4.63;;;3.30;;
7661;SDS011;30314;48.184;11.510;2023-04-15T12:24:26;5.33;;;3.20;;
7661;SDS011;30314;48.184;11.510;2023-04-15T12:26:54;6.40;;;3.03;;
7661;SDS011;30314;48.184;11.510;2023-04-15T12:29:27;5.80;;;2.77;;
7661;SDS011;30314;48.184;11.510;2023-04-15T12:31:55;6.00;;;3.13;;
7661;SDS011;30314;48.184;11.510;2023-04-15T12:34:32;6.17;;;2.70;;
7661;SDS011;30314;48.184;11.510;2023-04-15T12:37:00;8.83;;;3.03;;
7661;SDS011;30314;48.184;11.510;2023-04-15T12:39:29;4.43;;;2.73;;
7661;SDS011;30314;48.184;11.510;2023-04-15T12:41:58;4.80;;;2.43;;
7661;SDS011;30314;48.184;11.510;2023-04-15T12:44:28;3.13;;;2.27;;
7661;SDS011;30314;48.184;11.510;2023-04-15T12:46:54;3.63;;;2.30;;
7661;SDS011;30314;48.184;11.510;2023-04-15T12:49:22;5.03;;;2.07;;
7661;SDS011;30314;48.184;11.510;2023-04-15T12:51:51;4.43;;;1.90;;
7661;SDS011;30314;48.184;11.510;2023-04-15T12:54:18;4.30;;;2.67;;
7661;SDS011;30314;48.184;11.510;2023-04-15T12:56:46;7.73;;;2.77;;
7661;SDS011;30314;48.184;11.510;2023-04-15T12:59:13;2.87;;;2.20;;
7661;SDS011;30314;48.184;11.510;2023-04-15T13:01:40;2.67;;;1.90;;
7661;SDS011;30314;48.184;11.510;2023-04-15T13:04:07;4.63;;;1.97;;
7661;SDS011;30314;48.184;11.510;2023-04-15T13:06:34;9.33;;;2.37;;
7661;SDS011;30314;48.184;11.510;2023-04-15T13:09:02;4.83;;;2.13;;
7661;SDS011;30314;48.184;11.510;2023-04-15T13:11:30;3.33;;;2.23;;
7661;SDS011;30314;48.184;11.510;2023-04-15T13:13:59;4.63;;;2.93;;
7661;SDS011;30314;48.184;11.510;2023-04-15T13:16:27;4.60;;;2.37;;
7661;SDS011;30314;48.184;11.510;2023-04-15T13:18:53;6.73;;;2.07;;
7661;SDS011;30314;48.184;11.510;2023-04-15T13:21:20;2.97;;;1.97;;
7661;SDS011;30314;48.184;11.510;2023-04-15T13:23:47;4.83;;;2.17;;
7661;SDS011;30314;48.184;11.510;2023-04-15T13:26:15;6.70;;;2.70;;
7661;SDS011;30314;48.184;11.510;2023-04-15T13:28:42;7.93;;;3.57;;
7661;SDS011;30314;48.184;11.510;2023-04-15T13:31:08;6.43;;;3.13;;
7661;SDS011;30314;48.184;11.510;2023-04-15T13:33:35;6.27;;;3.03;;
7661;SDS011;30314;48.184;11.510;2023-04-15T13:36:01;7.23;;;3.50;;
7661;SDS011;30314;48.184;11.510;2023-04-15T13:38:28;7.13;;;3.53;;
7661;SDS011;30314;48.184;11.510;2023-04-15T13:40:57;7.70;;;3.10;;
7661;SDS011;30314;48.184;11.510;2023-04-15T13:43:23;4.53;;;3.50;;
7661;SDS011;30314;48.184;11.510;2023-04-15T13:45:50;7.70;;;3.87;;
7661;SDS011;30314;48.184;11.510;2023-04-15T13:48:16;5.93;;;3.87;;
7661;SDS011;30314;48.184;11.510;2023-04-15T13:50:43;4.27;;;3.47;;
7661;SDS011;30314;48.184;11.510;2023-04-15T13:53:11;7.77;;;3.20;;
7661;SDS011;30314;48.184;11.510;2023-04-15T13:55:38;4.40;;;2.87;;
7661;SDS011;30314;48.184;11.510;2023-04-15T13:58:10;4.57;;;2.67;;
7661;SDS011;30314;48.184;11.510;2023-04-15T14:00:36;4.13;;;2.43;;
7661;SDS011;30314;48.184;11.510;2023-04-15T14:03:03;6.60;;;2.73;;
7661;SDS011;30314;48.184;11.510;2023-04-15T14:05:30;10.20;;;2.70;;
7661;SDS011;30314;48.184;11.510;2023-04-15T14:07:58;9.47;;;4.10;;
7661;SDS011;30314;48.184;11.510;2023-04-15T14:10:25;4.40;;;3.00;;
7661;SDS011;30314;48.184;11.510;2023-04-15T14:12:52;3.50;;;2.13;;
7661;SDS011;30314;48.184;11.510;2023-04-15T14:15:20;2.67;;;2.30;;
7661;SDS011;30314;48.184;11.510;2023-04-15T14:17:47;6.20;;;2.57;;
7661;SDS011;30314;48.184;11.510;2023-04-15T14:20:14;2.97;;;2.43;;
7661;SDS011;30314;48.184;11.510;2023-04-15T14:22:42;5.00;;;2.43;;
7661;SDS011;30314;48.184;11.510;2023-04-15T14:25:09;3.73;;;2.33;;
7661;SDS011;30314;48.184;11.510;2023-04-15T14:27:42;5.83;;;2.40;;
7661;SDS011;30314;48.184;11.510;2023-04-15T14:30:09;4.40;;;2.93;;
7661;SDS011;30314;48.184;11.510;2023-04-15T14:32:36;3.67;;;2.30;;
7661;SDS011;30314;48.184;11.510;2023-04-15T14:35:02;6.60;;;2.57;;
7661;SDS011;30314;48.184;11.510;2023-04-15T14:37:29;2.93;;;1.60;;
7661;SDS011;30314;48.184;11.510;2023-04-15T14:39:56;6.70;;;4.53;;
7661;SDS011;30314;48.184;11.510;2023-04-15T14:42:22;5.57;;;2.10;;
7661;SDS011;30314;48.184;11.510;2023-04-15T14:44:49;3.33;;;2.27;;
7661;SDS011;30314;48.184;11.510;2023-04-15T14:47:15;6.13;;;2.90;;
7661;SDS011;30314;48.184;11.510;2023-04-15T14:49:42;3.23;;;2.57;;
7661;SDS011;30314;48.184;11.510;2023-04-15T14:52:09;5.40;;;2.30;;
7661;SDS011;30314;48.184;11.510;2023-04-15T14:54:36;6.47;;;2.87;;
7661;SDS011;30314;48.184;11.510;2023-04-15T14:57:02;4.17;;;3.20;;
7661;SDS011;30314;48.184;11.510;2023-04-15T14:59:29;7.13;;;3.20;;
7661;SDS011;30314;48.184;11.510;2023-04-15T15:01:55;5.07;;;3.30;;
7661;SDS011;30314;48.184;11.510;2023-04-15T15:04:22;9.00;;;3.60;;
7661;SDS011;30314;48.184;11.510;2023-04-15T15:06:49;6.50;;;3.10;;
7661;SDS011;30314;48.184;11.510;2023-04-15T15:09:16;4.07;;;2.83;;
7661;SDS011;30314;48.184;11.510;2023-04-15T15:11:42;3.07;;;2.47;;